sensor_id;sensor_type;location;lat;lon;timestamp;P1;durP1;ratioP1;P2;durP2;ratioP2
20095;SDS011;10207;50.942;6.900;2023-02-28T00:01:34;3.73;;;2.00;;
20095;SDS011;10207;50.942;6.900;2023-02-28T00:04:00;2.57;;;1.63;;
20095;SDS011;10207;50.942;6.900;2023-02-28T00:06:26;4.43;;;1.70;;
20095;SDS011;10207;50.942;6.900;2023-02-28T00:08:52;4.40;;;1.70;;
20095;SDS011;10207;50.942;6.900;2023-02-28T00:11:18;4.07;;;1.93;;
20095;SDS011;10207;50.942;6.900;2023-02-28T00:13:45;3.97;;;1.90;;
20095;SDS011;10207;50.942;6.900;2023-02-28T00:16:15;3.83;;;1.67;;
20095;SDS011;10207;50.942;6.900;2023-02-28T00:18:41;4.53;;;1.50;;
20095;SDS011;10207;50.942;6.900;2023-02-28T00:21:07;3.83;;;1.80;;
20095;SDS011;10207;50.942;6.900;2023-02-28T00:23:33;7.00;;;1.80;;
20095;SDS011;10207;50.942;6.900;2023-02-28T00:26:00;5.43;;;1.83;;
20095;SDS011;10207;50.942;6.900;2023-02-28T00:28:26;5.90;;;1.73;;
20095;SDS011;10207;50.942;6.900;2023-02-28T00:30:52;3.43;;;1.80;;
20095;SDS011;10207;50.942;6.900;2023-02-28T00:33:18;5.47;;;2.10;;
20095;SDS011;10207;50.942;6.900;2023-02-28T00:35:44;7.30;;;2.07;;
20095;SDS011;10207;50.942;6.900;2023-02-28T00:38:12;3.93;;;1.97;;
20095;SDS011;10207;50.942;6.900;2023-02-28T00:40:38;6.33;;;2.20;;
20095;SDS011;10207;50.942;6.900;2023-02-28T00:43:04;3.20;;;1.73;;
20095;SDS011;10207;50.942;6.900;2023-02-28T00:45:30;2.27;;;1.30;;
20095;SDS011;10207;50.942;6.900;2023-02-28T00:47:56;4.73;;;1.80;;
20095;SDS011;10207;50.942;6.900;2023-02-28T00:50:23;7.33;;;2.13;;
20095;SDS011;10207;50.942;6.900;2023-02-28T00:52:48;6.73;;;2.07;;
20095;SDS011;10207;50.942;6.900;2023-02-28T00:55:15;5.20;;;2.30;;
20095;SDS011;10207;50.942;6.900;2023-02-28T00:57:40;2.40;;;1.70;;
20095;SDS011;10207;50.942;6.900;2023-02-28T01:00:07;3.73;;;1.70;;
20095;SDS011;10207;50.942;6.900;2023-02-28T01:02:33;2.67;;;1.47;;
20095;SDS011;10207;50.942;6.900;2023-02-28T01:04:59;2.27;;;1.40;;
20095;SDS011;10207;50.942;6.900;2023-02-28T01:07:28;6.07;;;1.63;;
20095;SDS011;10207;50.942;6.900;2023-02-28T01:09:54;3.13;;;1.60;;
20095;SDS011;10207;50.942;6.900;2023-02-28T01:12:20;2.83;;;1.70;;
20095;SDS011;10207;50.942;6.900;2023-02-28T01:14:46;5.50;;;1.87;;
20095;SDS011;10207;50.942;6.900;2023-02-28T01:17:12;8.63;;;2.23;;
20095;SDS011;10207;50.942;6.900;2023-02-28T01:19:38;2.13;;;1.47;;
20095;SDS011;10207;50.942;6.900;2023-02-28T01:22:04;3.43;;;1.83;;
20095;SDS011;10207;50.942;6.900;2023-02-28T01:24:31;3.77;;;1.80;;
20095;SDS011;10207;50.942;6.900;2023-02-28T01:26:57;5.33;;;2.10;;
20095;SDS011;10207;50.942;6.900;2023-02-28T01:29:23;5.87;;;1.67;;
20095;SDS011;10207;50.942;6.900;2023-02-28T01:31:49;4.37;;;1.90;;
20095;SDS011;10207;50.942;6.900;2023-02-28T01:34:16;3.87;;;1.83;;
20095;SDS011;10207;50.942;6.900;2023-02-28T01:36:44;5.20;;;1.73;;
20095;SDS011;10207;50.942;6.900;2023-02-28T01:39:11;2.57;;;1.40;;
20095;SDS011;10207;50.942;6.900;2023-02-28T01:41:38;2.30;;;1.57;;
20095;SDS011;10207;50.942;6.900;2023-02-28T01:44:05;5.57;;;1.80;;
20095;SDS011;10207;50.942;6.900;2023-02-28T01:46:33;4.37;;;1.93;;
20095;SDS011;10207;50.942;6.900;2023-02-28T01:54:28;5.30;;;2.00;;
20095;SDS011;10207;50.942;6.900;2023-02-28T01:57:10;4.20;;;1.77;;
20095;SDS011;10207;50.942;6.900;2023-02-28T01:59:42;4.50;;;1.50;;
20095;SDS011;10207;50.942;6.900;2023-02-28T02:02:12;4.47;;;1.90;;
20095;SDS011;10207;50.942;6.900;2023-02-28T02:04:40;3.30;;;1.90;;
20095;SDS011;10207;50.942;6.900;2023-02-28T02:07:08;4.33;;;1.70;;
20095;SDS011;10207;50.942;6.900;2023-02-28T02:09:34;6.87;;;2.20;;
20095;SDS011;10207;50.942;6.900;2023-02-28T02:12:01;5.20;;;2.03;;
20095;SDS011;10207;50.942;6.900;2023-02-28T02:14:58;2.37;;;1.80;;
20095;SDS011;10207;50.942;6.900;2023-02-28T02:33:02;5.30;;;2.07;;
20095;SDS011;10207;50.942;6.900;2023-02-28T02:35:31;4.30;;;1.60;;
20095;SDS011;10207;50.942;6.900;2023-02-28T02:45:33;3.57;;;1.30;;
20095;SDS011;10207;50.942;6.900;2023-02-28T02:48:04;3.43;;;1.80;;
20095;SDS011;10207;50.942;6.900;2023-02-28T02:50:37;1.67;;;1.30;;
20095;SDS011;10207;50.942;6.900;2023-02-28T02:53:04;3.93;;;1.60;;
20095;SDS011;10207;50.942;6.900;2023-02-28T02:55:32;2.30;;;1.43;;
20095;SDS011;10207;50.942;6.900;2023-02-28T02:58:04;2.03;;;1.40;;
20095;SDS011;10207;50.942;6.900;2023-02-28T03:00:33;1.60;;;1.30;;
20095;SDS011;10207;50.942;6.900;2023-02-28T03:03:00;3.10;;;1.50;;
20095;SDS011;10207;50.942;6.900;2023-02-28T03:05:32;2.33;;;2.00;;
20095;SDS011;10207;50.942;6.900;2023-02-28T03:08:02;2.80;;;1.70;;
20095;SDS011;10207;50.942;6.900;2023-02-28T03:10:33;3.83;;;1.60;;
20095;SDS011;10207;50.942;6.900;2023-02-28T03:18:40;6.47;;;2.13;;
20095;SDS011;10207;50.942;6.900;2023-02-28T03:24:21;3.63;;;1.67;;
20095;SDS011;10207;50.942;6.900;2023-02-28T03:26:26;4.57;;;2.17;;
20095;SDS011;10207;50.942;6.900;2023-02-28T03:29:03;5.63;;;1.93;;
20095;SDS011;10207;50.942;6.900;2023-02-28T03:31:33;3.90;;;1.60;;
20095;SDS011;10207;50.942;6.900;2023-02-28T03:34:09;4.97;;;2.03;;
20095;SDS011;10207;50.942;6.900;2023-02-28T03:36:37;2.43;;;1.70;;
20095;SDS011;10207;50.942;6.900;2023-02-28T03:39:22;6.63;;;2.20;;
20095;SDS011;10207;50.942;6.900;2023-02-28T03:41:50;5.73;;;2.20;;
20095;SDS011;10207;50.942;6.900;2023-02-28T03:44:18;2.93;;;1.87;;
20095;SDS011;10207;50.942;6.900;2023-02-28T03:46:52;2.73;;;1.80;;
20095;SDS011;10207;50.942;6.900;2023-02-28T03:49:26;9.20;;;2.30;;
20095;SDS011;10207;50.942;6.900;2023-02-28T03:51:53;3.47;;;2.00;;
20095;SDS011;10207;50.942;6.900;2023-02-28T03:54:22;4.47;;;2.27;;
20095;SDS011;10207;50.942;6.900;2023-02-28T03:59:36;4.40;;;2.40;;
20095;SDS011;10207;50.942;6.900;2023-02-28T04:02:03;3.93;;;2.47;;
20095;SDS011;10207;50.942;6.900;2023-02-28T04:04:29;3.90;;;2.00;;
20095;SDS011;10207;50.942;6.900;2023-02-28T04:07:06;7.27;;;2.90;;
20095;SDS011;10207;50.942;6.900;2023-02-28T04:09:32;4.70;;;2.40;;
20095;SDS011;10207;50.942;6.900;2023-02-28T04:11:58;5.53;;;2.00;;
20095;SDS011;10207;50.942;6.900;2023-02-28T04:14:25;7.57;;;2.57;;
20095;SDS011;10207;50.942;6.900;2023-02-28T04:16:51;5.10;;;2.43;;
20095;SDS011;10207;50.942;6.900;2023-02-28T04:19:18;4.47;;;2.30;;
20095;SDS011;10207;50.942;6.900;2023-02-28T04:21:48;5.73;;;2.07;;
20095;SDS011;10207;50.942;6.900;2023-02-28T04:24:22;5.67;;;2.13;;
20095;SDS011;10207;50.942;6.900;2023-02-28T04:26:49;3.47;;;2.13;;
20095;SDS011;10207;50.942;6.900;2023-02-28T04:29:19;5.33;;;2.53;;
20095;SDS011;10207;50.942;6.900;2023-02-28T04:31:46;3.40;;;2.13;;
20095;SDS011;10207;50.942;6.900;2023-02-28T04:34:12;3.67;;;2.00;;
20095;SDS011;10207;50.942;6.900;2023-02-28T04:36:38;5.80;;;2.30;;
20095;SDS011;10207;50.942;6.900;2023-02-28T04:39:04;4.33;;;2.20;;
20095;SDS011;10207;50.942;6.900;2023-02-28T04:41:29;4.97;;;2.10;;
20095;SDS011;10207;50.942;6.900;2023-02-28T04:43:55;4.23;;;2.10;;
20095;SDS011;10207;50.942;6.900;2023-02-28T04:46:22;3.97;;;2.30;;
20095;SDS011;10207;50.942;6.900;2023-02-28T04:48:48;5.37;;;2.73;;
20095;SDS011;10207;50.942;6.900;2023-02-28T04:51:14;5.03;;;2.17;;
20095;SDS011;10207;50.942;6.900;2023-02-28T04:53:41;2.97;;;1.83;;
20095;SDS011;10207;50.942;6.900;2023-02-28T04:56:08;5.77;;;2.30;;
20095;SDS011;10207;50.942;6.900;2023-02-28T04:58:35;1.80;;;1.40;;
20095;SDS011;10207;50.942;6.900;2023-02-28T05:01:05;5.70;;;2.47;;
20095;SDS011;10207;50.942;6.900;2023-02-28T05:03:39;4.63;;;2.63;;
20095;SDS011;10207;50.942;6.900;2023-02-28T05:06:06;5.63;;;1.90;;
20095;SDS011;10207;50.942;6.900;2023-02-28T05:08:33;5.90;;;2.07;;
20095;SDS011;10207;50.942;6.900;2023-02-28T05:10:59;2.83;;;1.93;;
20095;SDS011;10207;50.942;6.900;2023-02-28T05:13:26;3.13;;;2.10;;
20095;SDS011;10207;50.942;6.900;2023-02-28T05:15:52;3.80;;;1.97;;
20095;SDS011;10207;50.942;6.900;2023-02-28T05:18:18;5.57;;;2.00;;
20095;SDS011;10207;50.942;6.900;2023-02-28T05:20:44;8.30;;;2.37;;
20095;SDS011;10207;50.942;6.900;2023-02-28T05:23:11;4.30;;;2.10;;
20095;SDS011;10207;50.942;6.900;2023-02-28T05:25:38;4.10;;;2.13;;
20095;SDS011;10207;50.942;6.900;2023-02-28T05:28:05;4.70;;;2.13;;
20095;SDS011;10207;50.942;6.900;2023-02-28T05:30:30;8.07;;;2.40;;
20095;SDS011;10207;50.942;6.900;2023-02-28T05:32:57;4.97;;;2.17;;
20095;SDS011;10207;50.942;6.900;2023-02-28T05:35:23;5.40;;;2.63;;
20095;SDS011;10207;50.942;6.900;2023-02-28T05:37:50;2.93;;;1.80;;
20095;SDS011;10207;50.942;6.900;2023-02-28T05:40:16;3.50;;;1.80;;
20095;SDS011;10207;50.942;6.900;2023-02-28T05:42:42;3.33;;;2.00;;
20095;SDS011;10207;50.942;6.900;2023-02-28T05:45:08;3.70;;;2.03;;
20095;SDS011;10207;50.942;6.900;2023-02-28T05:47:34;4.30;;;1.80;;
20095;SDS011;10207;50.942;6.900;2023-02-28T05:50:00;2.80;;;1.87;;
20095;SDS011;10207;50.942;6.900;2023-02-28T05:52:27;3.97;;;1.97;;
20095;SDS011;10207;50.942;6.900;2023-02-28T05:54:53;5.03;;;2.17;;
20095;SDS011;10207;50.942;6.900;2023-02-28T05:57:19;4.07;;;2.20;;
20095;SDS011;10207;50.942;6.900;2023-02-28T05:59:44;3.30;;;1.80;;
20095;SDS011;10207;50.942;6.900;2023-02-28T06:02:12;3.47;;;2.03;;
20095;SDS011;10207;50.942;6.900;2023-02-28T06:04:38;4.33;;;1.77;;
20095;SDS011;10207;50.942;6.900;2023-02-28T06:07:04;2.33;;;1.53;;
20095;SDS011;10207;50.942;6.900;2023-02-28T06:09:29;4.17;;;1.83;;
20095;SDS011;10207;50.942;6.900;2023-02-28T06:11:57;3.53;;;1.33;;
20095;SDS011;10207;50.942;6.900;2023-02-28T06:14:23;5.07;;;1.97;;
20095;SDS011;10207;50.942;6.900;2023-02-28T06:16:49;2.60;;;1.90;;
20095;SDS011;10207;50.942;6.900;2023-02-28T06:19:15;3.73;;;2.10;;
20095;SDS011;10207;50.942;6.900;2023-02-28T06:21:41;3.00;;;1.77;;
20095;SDS011;10207;50.942;6.900;2023-02-28T06:24:07;4.77;;;2.07;;
20095;SDS011;10207;50.942;6.900;2023-02-28T06:26:33;2.73;;;1.80;;
20095;SDS011;10207;50.942;6.900;2023-02-28T06:28:59;6.10;;;2.23;;
20095;SDS011;10207;50.942;6.900;2023-02-28T06:31:26;4.07;;;2.90;;
20095;SDS011;10207;50.942;6.900;2023-02-28T06:33:54;3.80;;;2.43;;
20095;SDS011;10207;50.942;6.900;2023-02-28T06:36:20;5.93;;;2.10;;
20095;SDS011;10207;50.942;6.900;2023-02-28T06:38:47;7.57;;;2.50;;
20095;SDS011;10207;50.942;6.900;2023-02-28T06:41:17;4.97;;;2.33;;
20095;SDS011;10207;50.942;6.900;2023-02-28T06:43:43;4.67;;;2.13;;
20095;SDS011;10207;50.942;6.900;2023-02-28T06:46:11;4.77;;;2.10;;
20095;SDS011;10207;50.942;6.900;2023-02-28T06:48:37;3.23;;;2.03;;
20095;SDS011;10207;50.942;6.900;2023-02-28T06:51:10;6.83;;;1.80;;
20095;SDS011;10207;50.942;6.900;2023-02-28T06:53:36;4.27;;;2.13;;
20095;SDS011;10207;50.942;6.900;2023-02-28T06:56:03;3.40;;;2.33;;
20095;SDS011;10207;50.942;6.900;2023-02-28T06:58:31;3.87;;;1.70;;
20095;SDS011;10207;50.942;6.900;2023-02-28T07:00:57;4.93;;;2.03;;
20095;SDS011;10207;50.942;6.900;2023-02-28T07:03:22;3.93;;;2.07;;
20095;SDS011;10207;50.942;6.900;2023-02-28T07:05:48;3.83;;;1.60;;
20095;SDS011;10207;50.942;6.900;2023-02-28T07:08:14;2.87;;;1.70;;
20095;SDS011;10207;50.942;6.900;2023-02-28T07:10:41;2.60;;;1.60;;
20095;SDS011;10207;50.942;6.900;2023-02-28T07:13:07;4.40;;;2.00;;
20095;SDS011;10207;50.942;6.900;2023-02-28T07:15:34;3.27;;;1.80;;
20095;SDS011;10207;50.942;6.900;2023-02-28T07:18:00;4.63;;;2.13;;
20095;SDS011;10207;50.942;6.900;2023-02-28T07:20:26;4.70;;;2.17;;
20095;SDS011;10207;50.942;6.900;2023-02-28T07:22:52;5.27;;;2.00;;
20095;SDS011;10207;50.942;6.900;2023-02-28T07:25:25;4.93;;;2.03;;
20095;SDS011;10207;50.942;6.900;2023-02-28T07:27:51;6.47;;;2.17;;
20095;SDS011;10207;50.942;6.900;2023-02-28T07:30:18;4.13;;;2.20;;
20095;SDS011;10207;50.942;6.900;2023-02-28T07:32:44;3.40;;;2.10;;
20095;SDS011;10207;50.942;6.900;2023-02-28T07:35:10;2.20;;;1.53;;
20095;SDS011;10207;50.942;6.900;2023-02-28T07:37:36;4.80;;;2.07;;
20095;SDS011;10207;50.942;6.900;2023-02-28T07:40:06;3.23;;;1.90;;
20095;SDS011;10207;50.942;6.900;2023-02-28T07:42:37;6.37;;;2.30;;
20095;SDS011;10207;50.942;6.900;2023-02-28T07:45:04;2.63;;;1.80;;
20095;SDS011;10207;50.942;6.900;2023-02-28T07:47:30;3.37;;;1.70;;
20095;SDS011;10207;50.942;6.900;2023-02-28T07:49:56;3.30;;;1.77;;
20095;SDS011;10207;50.942;6.900;2023-02-28T07:52:22;4.00;;;1.93;;
20095;SDS011;10207;50.942;6.900;2023-02-28T07:54:51;2.87;;;1.67;;
20095;SDS011;10207;50.942;6.900;2023-02-28T07:57:17;2.20;;;1.63;;
20095;SDS011;10207;50.942;6.900;2023-02-28T07:59:43;2.43;;;1.60;;
20095;SDS011;10207;50.942;6.900;2023-02-28T08:02:13;1.98;;;1.23;;
20095;SDS011;10207;50.942;6.900;2023-02-28T08:04:39;1.53;;;1.30;;
20095;SDS011;10207;50.942;6.900;2023-02-28T08:07:06;2.67;;;1.73;;
20095;SDS011;10207;50.942;6.900;2023-02-28T08:09:32;2.10;;;1.43;;
20095;SDS011;10207;50.942;6.900;2023-02-28T08:11:58;3.47;;;1.75;;
20095;SDS011;10207;50.942;6.900;2023-02-28T08:14:23;2.38;;;1.40;;
20095;SDS011;10207;50.942;6.900;2023-02-28T08:16:50;4.28;;;1.42;;
20095;SDS011;10207;50.942;6.900;2023-02-28T08:19:15;3.05;;;1.60;;
20095;SDS011;10207;50.942;6.900;2023-02-28T08:21:41;5.10;;;1.50;;
20095;SDS011;10207;50.942;6.900;2023-02-28T08:24:07;3.17;;;1.50;;
20095;SDS011;10207;50.942;6.900;2023-02-28T08:26:33;2.85;;;1.52;;
20095;SDS011;10207;50.942;6.900;2023-02-28T08:28:59;1.70;;;1.20;;
20095;SDS011;10207;50.942;6.900;2023-02-28T08:31:25;2.67;;;1.20;;
20095;SDS011;10207;50.942;6.900;2023-02-28T08:33:52;3.67;;;1.40;;
20095;SDS011;10207;50.942;6.900;2023-02-28T08:36:19;1.95;;;1.20;;
20095;SDS011;10207;50.942;6.900;2023-02-28T08:38:45;2.58;;;1.38;;
20095;SDS011;10207;50.942;6.900;2023-02-28T08:41:12;2.05;;;1.38;;
20095;SDS011;10207;50.942;6.900;2023-02-28T08:43:39;3.20;;;1.63;;
20095;SDS011;10207;50.942;6.900;2023-02-28T08:46:05;4.60;;;1.30;;
20095;SDS011;10207;50.942;6.900;2023-02-28T08:48:32;1.70;;;1.20;;
20095;SDS011;10207;50.942;6.900;2023-02-28T08:51:08;1.42;;;0.93;;
20095;SDS011;10207;50.942;6.900;2023-02-28T08:53:35;2.08;;;1.35;;
20095;SDS011;10207;50.942;6.900;2023-02-28T08:56:03;1.20;;;0.90;;
20095;SDS011;10207;50.942;6.900;2023-02-28T08:58:29;1.23;;;0.70;;
20095;SDS011;10207;50.942;6.900;2023-02-28T09:00:55;2.53;;;1.10;;
20095;SDS011;10207;50.942;6.900;2023-02-28T09:03:22;1.50;;;1.10;;
20095;SDS011;10207;50.942;6.900;2023-02-28T09:05:58;1.77;;;0.77;;
20095;SDS011;10207;50.942;6.900;2023-02-28T09:08:25;1.40;;;0.93;;
20095;SDS011;10207;50.942;6.900;2023-02-28T09:10:51;4.55;;;1.20;;
20095;SDS011;10207;50.942;6.900;2023-02-28T09:13:18;1.45;;;0.90;;
20095;SDS011;10207;50.942;6.900;2023-02-28T09:15:44;1.58;;;1.08;;
20095;SDS011;10207;50.942;6.900;2023-02-28T09:18:10;3.42;;;0.90;;
20095;SDS011;10207;50.942;6.900;2023-02-28T09:20:39;1.40;;;0.90;;
20095;SDS011;10207;50.942;6.900;2023-02-28T09:23:06;3.08;;;1.60;;
20095;SDS011;10207;50.942;6.900;2023-02-28T09:25:32;1.52;;;1.00;;
20095;SDS011;10207;50.942;6.900;2023-02-28T09:27:58;1.13;;;0.60;;
20095;SDS011;10207;50.942;6.900;2023-02-28T09:30:24;1.27;;;0.80;;
20095;SDS011;10207;50.942;6.900;2023-02-28T09:32:50;2.58;;;0.90;;
20095;SDS011;10207;50.942;6.900;2023-02-28T09:35:19;3.20;;;1.17;;
20095;SDS011;10207;50.942;6.900;2023-02-28T09:37:47;1.90;;;0.80;;
20095;SDS011;10207;50.942;6.900;2023-02-28T09:40:13;3.10;;;1.00;;
20095;SDS011;10207;50.942;6.900;2023-02-28T09:42:40;3.35;;;1.02;;
20095;SDS011;10207;50.942;6.900;2023-02-28T09:47:51;1.50;;;0.70;;
20095;SDS011;10207;50.942;6.900;2023-02-28T09:50:34;2.03;;;1.10;;
20095;SDS011;10207;50.942;6.900;2023-02-28T09:53:06;1.67;;;1.00;;
20095;SDS011;10207;50.942;6.900;2023-02-28T09:55:42;2.22;;;1.17;;
20095;SDS011;10207;50.942;6.900;2023-02-28T09:58:16;2.05;;;0.65;;
20095;SDS011;10207;50.942;6.900;2023-02-28T10:00:44;1.95;;;0.75;;
20095;SDS011;10207;50.942;6.900;2023-02-28T10:03:27;1.65;;;0.57;;
20095;SDS011;10207;50.942;6.900;2023-02-28T10:06:01;1.63;;;1.00;;
20095;SDS011;10207;50.942;6.900;2023-02-28T10:08:32;4.80;;;1.08;;
20095;SDS011;10207;50.942;6.900;2023-02-28T10:11:03;2.35;;;1.15;;
20095;SDS011;10207;50.942;6.900;2023-02-28T10:13:36;2.90;;;1.40;;
20095;SDS011;10207;50.942;6.900;2023-02-28T10:16:09;2.97;;;0.95;;
20095;SDS011;10207;50.942;6.900;2023-02-28T10:18:47;1.77;;;1.15;;
20095;SDS011;10207;50.942;6.900;2023-02-28T10:21:20;2.08;;;0.73;;
20095;SDS011;10207;50.942;6.900;2023-02-28T10:23:47;2.28;;;0.90;;
20095;SDS011;10207;50.942;6.900;2023-02-28T10:26:14;3.15;;;0.90;;
20095;SDS011;10207;50.942;6.900;2023-02-28T10:28:44;2.50;;;1.23;;
20095;SDS011;10207;50.942;6.900;2023-02-28T10:31:11;2.03;;;1.08;;
20095;SDS011;10207;50.942;6.900;2023-02-28T10:33:41;1.92;;;1.00;;
20095;SDS011;10207;50.942;6.900;2023-02-28T10:36:08;2.28;;;1.00;;
20095;SDS011;10207;50.942;6.900;2023-02-28T10:38:37;6.25;;;0.90;;
20095;SDS011;10207;50.942;6.900;2023-02-28T10:41:11;3.17;;;1.23;;
20095;SDS011;10207;50.942;6.900;2023-02-28T10:43:38;7.35;;;1.58;;
20095;SDS011;10207;50.942;6.900;2023-02-28T10:48:43;6.70;;;1.63;;
20095;SDS011;10207;50.942;6.900;2023-02-28T10:51:14;2.20;;;1.10;;
20095;SDS011;10207;50.942;6.900;2023-02-28T11:03:57;1.80;;;1.20;;
20095;SDS011;10207;50.942;6.900;2023-02-28T11:06:25;2.60;;;1.40;;
20095;SDS011;10207;50.942;6.900;2023-02-28T11:08:53;1.88;;;0.82;;
20095;SDS011;10207;50.942;6.900;2023-02-28T11:11:20;2.38;;;1.30;;
20095;SDS011;10207;50.942;6.900;2023-02-28T11:13:46;2.13;;;1.20;;
20095;SDS011;10207;50.942;6.900;2023-02-28T11:16:13;2.05;;;1.30;;
20095;SDS011;10207;50.942;6.900;2023-02-28T11:18:47;3.05;;;1.52;;
20095;SDS011;10207;50.942;6.900;2023-02-28T11:21:33;2.15;;;1.10;;
20095;SDS011;10207;50.942;6.900;2023-02-28T11:26:45;1.23;;;0.88;;
20095;SDS011;10207;50.942;6.900;2023-02-28T11:29:18;2.20;;;1.20;;
20095;SDS011;10207;50.942;6.900;2023-02-28T11:34:29;5.10;;;1.50;;
20095;SDS011;10207;50.942;6.900;2023-02-28T11:36:56;5.65;;;1.58;;
20095;SDS011;10207;50.942;6.900;2023-02-28T11:39:23;1.83;;;1.20;;
20095;SDS011;10207;50.942;6.900;2023-02-28T11:57:19;1.92;;;1.33;;
20095;SDS011;10207;50.942;6.900;2023-02-28T12:00:08;4.70;;;1.30;;
20095;SDS011;10207;50.942;6.900;2023-02-28T12:03:26;2.90;;;1.58;;
20095;SDS011;10207;50.942;6.900;2023-02-28T12:08:09;4.63;;;1.80;;
20095;SDS011;10207;50.942;6.900;2023-02-28T12:10:49;3.08;;;1.63;;
20095;SDS011;10207;50.942;6.900;2023-02-28T12:13:24;3.15;;;1.27;;
20095;SDS011;10207;50.942;6.900;2023-02-28T12:16:04;2.83;;;1.75;;
20095;SDS011;10207;50.942;6.900;2023-02-28T12:18:38;2.05;;;1.10;;
20095;SDS011;10207;50.942;6.900;2023-02-28T12:28:37;3.50;;;1.48;;
20095;SDS011;10207;50.942;6.900;2023-02-28T12:33:50;2.55;;;1.52;;
20095;SDS011;10207;50.942;6.900;2023-02-28T12:36:18;3.47;;;1.35;;
20095;SDS011;10207;50.942;6.900;2023-02-28T12:41:19;3.33;;;1.77;;
20095;SDS011;10207;50.942;6.900;2023-02-28T12:43:49;2.35;;;1.25;;
20095;SDS011;10207;50.942;6.900;2023-02-28T12:46:18;2.88;;;1.50;;
20095;SDS011;10207;50.942;6.900;2023-02-28T12:48:50;4.22;;;1.65;;
20095;SDS011;10207;50.942;6.900;2023-02-28T12:51:18;2.55;;;1.60;;
20095;SDS011;10207;50.942;6.900;2023-02-28T12:56:18;3.20;;;1.65;;
20095;SDS011;10207;50.942;6.900;2023-02-28T12:58:47;3.15;;;1.50;;
20095;SDS011;10207;50.942;6.900;2023-02-28T13:01:32;4.70;;;1.98;;
20095;SDS011;10207;50.942;6.900;2023-02-28T13:09:13;3.42;;;1.88;;
20095;SDS011;10207;50.942;6.900;2023-02-28T13:11:42;6.15;;;2.08;;
20095;SDS011;10207;50.942;6.900;2023-02-28T13:16:52;5.97;;;1.00;;
20095;SDS011;10207;50.942;6.900;2023-02-28T13:19:20;3.20;;;1.80;;
20095;SDS011;10207;50.942;6.900;2023-02-28T13:21:49;3.85;;;1.67;;
20095;SDS011;10207;50.942;6.900;2023-02-28T13:29:30;2.90;;;1.80;;
20095;SDS011;10207;50.942;6.900;2023-02-28T13:34:32;4.55;;;2.17;;
20095;SDS011;10207;50.942;6.900;2023-02-28T13:55:32;3.50;;;1.70;;
20095;SDS011;10207;50.942;6.900;2023-02-28T13:58:10;3.00;;;1.50;;
20095;SDS011;10207;50.942;6.900;2023-02-28T14:03:15;3.10;;;1.73;;
20095;SDS011;10207;50.942;6.900;2023-02-28T14:05:44;3.47;;;2.00;;
20095;SDS011;10207;50.942;6.900;2023-02-28T14:15:57;4.47;;;2.60;;
20095;SDS011;10207;50.942;6.900;2023-02-28T14:18:25;3.03;;;1.88;;
20095;SDS011;10207;50.942;6.900;2023-02-28T14:21:01;3.13;;;1.77;;
20095;SDS011;10207;50.942;6.900;2023-02-28T14:25:58;4.38;;;2.42;;
20095;SDS011;10207;50.942;6.900;2023-02-28T14:28:41;3.30;;;1.90;;
20095;SDS011;10207;50.942;6.900;2023-02-28T14:31:09;3.97;;;2.03;;
20095;SDS011;10207;50.942;6.900;2023-02-28T14:38:35;5.55;;;2.40;;
20095;SDS011;10207;50.942;6.900;2023-02-28T14:41:03;4.97;;;2.25;;
20095;SDS011;10207;50.942;6.900;2023-02-28T14:43:29;2.60;;;1.90;;
20095;SDS011;10207;50.942;6.900;2023-02-28T14:46:02;4.45;;;2.20;;
20095;SDS011;10207;50.942;6.900;2023-02-28T14:48:28;6.55;;;2.88;;
20095;SDS011;10207;50.942;6.900;2023-02-28T14:50:58;5.93;;;3.17;;
20095;SDS011;10207;50.942;6.900;2023-02-28T14:53:25;3.53;;;2.00;;
20095;SDS011;10207;50.942;6.900;2023-02-28T14:55:52;5.13;;;1.92;;
20095;SDS011;10207;50.942;6.900;2023-02-28T14:58:23;4.97;;;2.80;;
20095;SDS011;10207;50.942;6.900;2023-02-28T15:00:50;4.70;;;2.45;;
20095;SDS011;10207;50.942;6.900;2023-02-28T15:05:55;4.97;;;2.45;;
20095;SDS011;10207;50.942;6.900;2023-02-28T15:08:22;4.18;;;2.40;;
20095;SDS011;10207;50.942;6.900;2023-02-28T15:13:18;3.97;;;2.28;;
20095;SDS011;10207;50.942;6.900;2023-02-28T15:21:02;4.05;;;1.88;;
20095;SDS011;10207;50.942;6.900;2023-02-28T15:23:29;3.03;;;2.17;;
20095;SDS011;10207;50.942;6.900;2023-02-28T15:25:56;2.28;;;1.40;;
20095;SDS011;10207;50.942;6.900;2023-02-28T15:28:22;3.75;;;2.10;;
20095;SDS011;10207;50.942;6.900;2023-02-28T15:30:59;2.70;;;2.00;;
20095;SDS011;10207;50.942;6.900;2023-02-28T15:33:30;3.03;;;1.88;;
20095;SDS011;10207;50.942;6.900;2023-02-28T15:36:03;4.97;;;2.13;;
20095;SDS011;10207;50.942;6.900;2023-02-28T15:38:29;3.50;;;2.50;;
20095;SDS011;10207;50.942;6.900;2023-02-28T15:40:58;3.92;;;2.45;;
20095;SDS011;10207;50.942;6.900;2023-02-28T15:43:32;4.95;;;2.13;;
20095;SDS011;10207;50.942;6.900;2023-02-28T15:48:29;3.75;;;2.33;;
20095;SDS011;10207;50.942;6.900;2023-02-28T15:50:57;5.45;;;2.10;;
20095;SDS011;10207;50.942;6.900;2023-02-28T15:53:25;3.58;;;1.88;;
20095;SDS011;10207;50.942;6.900;2023-02-28T15:55:53;3.70;;;1.90;;
20095;SDS011;10207;50.942;6.900;2023-02-28T15:58:20;3.42;;;2.25;;
20095;SDS011;10207;50.942;6.900;2023-02-28T16:00:59;2.60;;;1.58;;
20095;SDS011;10207;50.942;6.900;2023-02-28T16:03:26;4.20;;;2.30;;
20095;SDS011;10207;50.942;6.900;2023-02-28T16:08:54;4.28;;;2.50;;
20095;SDS011;10207;50.942;6.900;2023-02-28T16:11:20;5.28;;;2.92;;
20095;SDS011;10207;50.942;6.900;2023-02-28T16:13:47;4.47;;;2.33;;
20095;SDS011;10207;50.942;6.900;2023-02-28T16:16:17;4.32;;;2.25;;
20095;SDS011;10207;50.942;6.900;2023-02-28T16:18:43;3.87;;;2.37;;
20095;SDS011;10207;50.942;6.900;2023-02-28T16:21:09;4.78;;;2.63;;
20095;SDS011;10207;50.942;6.900;2023-02-28T16:23:35;16.73;;;6.40;;
20095;SDS011;10207;50.942;6.900;2023-02-28T16:26:02;4.78;;;2.13;;
20095;SDS011;10207;50.942;6.900;2023-02-28T16:28:33;5.03;;;1.92;;
20095;SDS011;10207;50.942;6.900;2023-02-28T16:31:00;3.80;;;2.27;;
20095;SDS011;10207;50.942;6.900;2023-02-28T16:33:28;4.50;;;2.53;;
20095;SDS011;10207;50.942;6.900;2023-02-28T16:35:55;3.28;;;1.98;;
20095;SDS011;10207;50.942;6.900;2023-02-28T16:38:20;4.40;;;2.23;;
20095;SDS011;10207;50.942;6.900;2023-02-28T16:40:49;3.47;;;2.00;;
20095;SDS011;10207;50.942;6.900;2023-02-28T16:43:17;4.22;;;2.00;;
20095;SDS011;10207;50.942;6.900;2023-02-28T16:45:43;4.65;;;2.25;;
20095;SDS011;10207;50.942;6.900;2023-02-28T16:48:13;4.20;;;2.00;;
20095;SDS011;10207;50.942;6.900;2023-02-28T16:50:39;4.40;;;1.92;;
20095;SDS011;10207;50.942;6.900;2023-02-28T16:53:05;3.60;;;1.90;;
20095;SDS011;10207;50.942;6.900;2023-02-28T16:55:31;3.05;;;2.20;;
20095;SDS011;10207;50.942;6.900;2023-02-28T16:57:58;3.53;;;2.10;;
20095;SDS011;10207;50.942;6.900;2023-02-28T17:00:24;6.85;;;2.72;;
20095;SDS011;10207;50.942;6.900;2023-02-28T17:02:50;6.43;;;2.27;;
20095;SDS011;10207;50.942;6.900;2023-02-28T17:05:16;8.10;;;2.35;;
20095;SDS011;10207;50.942;6.900;2023-02-28T17:07:44;4.72;;;2.90;;
20095;SDS011;10207;50.942;6.900;2023-02-28T17:12:42;5.72;;;2.80;;
20095;SDS011;10207;50.942;6.900;2023-02-28T17:15:09;5.90;;;2.63;;
20095;SDS011;10207;50.942;6.900;2023-02-28T17:17:35;6.20;;;3.10;;
20095;SDS011;10207;50.942;6.900;2023-02-28T17:20:01;9.18;;;4.30;;
20095;SDS011;10207;50.942;6.900;2023-02-28T17:22:27;4.18;;;2.35;;
20095;SDS011;10207;50.942;6.900;2023-02-28T17:24:53;6.97;;;3.70;;
20095;SDS011;10207;50.942;6.900;2023-02-28T17:27:23;11.70;;;4.63;;
20095;SDS011;10207;50.942;6.900;2023-02-28T17:29:49;6.80;;;3.97;;
20095;SDS011;10207;50.942;6.900;2023-02-28T17:32:15;20.95;;;7.68;;
20095;SDS011;10207;50.942;6.900;2023-02-28T17:34:41;13.80;;;6.88;;
20095;SDS011;10207;50.942;6.900;2023-02-28T17:37:07;9.63;;;4.60;;
20095;SDS011;10207;50.942;6.900;2023-02-28T17:39:33;6.80;;;2.60;;